Time;durP1;ratioP1;P1;durP2;ratioP2;P2;SDS_P1;SDS_P2;PMS_P1;PMS_P2;Temp;Humidity;BMP_temperature;BMP_pressure;BME280_temperature;BME280_humidity;BME280_pressure;Samples;Min_cycle;Max_cycle;Signal;HPM_P1;HPM_P2
2022/03/16 00:00:21;;;;;;;25.13;12.35;;;;;;;5.73;100.00;102551.34;10203627;28;20475;-65
2022/03/16 00:05:17;;;;;;;29.77;13.25;;;;;;;5.63;100.00;102555.50;10210622;28;20137;-64
2022/03/16 00:10:14;;;;;;;24.15;13.07;;;;;;;5.59;100.00;102562.50;10206550;28;20559;-63
2022/03/16 00:15:10;;;;;;;23.92;12.98;;;;;;;5.54;100.00;102565.09;10196405;28;20132;-64
2022/03/16 00:20:07;;;;;;;21.30;12.30;;;;;;;5.51;100.00;102571.00;10214165;28;20076;-65
2022/03/16 00:25:05;;;;;;;29.23;14.00;;;;;;;5.49;100.00;102573.13;10219298;28;20085;-66
2022/03/16 00:30:03;;;;;;;23.35;12.82;;;;;;;5.39;100.00;102586.47;10195768;28;20519;-65
2022/03/16 00:35:00;;;;;;;23.42;13.15;;;;;;;5.35;100.00;102588.00;10208216;28;20528;-64
2022/03/16 00:39:56;;;;;;;24.60;13.05;;;;;;;5.34;100.00;102591.75;10196848;28;20127;-64
2022/03/16 00:44:54;;;;;;;20.50;11.40;;;;;;;5.35;100.00;102585.28;10214857;28;20438;-64
2022/03/16 00:49:50;;;;;;;21.33;12.15;;;;;;;5.33;100.00;102595.53;10215670;28;20045;-64
2022/03/16 00:54:47;;;;;;;25.00;13.05;;;;;;;5.40;100.00;102596.25;10223448;28;20070;-64
2022/03/16 00:59:43;;;;;;;24.90;12.65;;;;;;;5.49;100.00;102600.25;10207685;28;20042;-65
2022/03/16 01:04:40;;;;;;;26.13;12.40;;;;;;;5.54;100.00;102608.50;10207064;28;20132;-64
2022/03/16 01:09:36;;;;;;;24.50;11.95;;;;;;;5.63;100.00;102607.06;10211828;28;20050;-65
2022/03/16 01:14:33;;;;;;;21.80;13.32;;;;;;;5.66;100.00;102609.34;10205547;28;20045;-65
2022/03/16 01:19:29;;;;;;;26.55;14.65;;;;;;;5.78;100.00;102611.16;10205883;28;20065;-66
2022/03/16 01:24:26;;;;;;;27.83;13.85;;;;;;;5.92;100.00;102615.28;10196804;28;20054;-66
2022/03/16 01:29:26;;;;;;;27.08;14.05;;;;;;;5.93;100.00;102625.06;10198436;28;20080;-66
2022/03/16 01:34:22;;;;;;;28.75;15.40;;;;;;;5.98;100.00;102618.97;10207944;28;20479;-64
2022/03/16 01:39:19;;;;;;;26.73;15.05;;;;;;;6.02;100.00;102626.38;10202835;28;20467;-64
2022/03/16 01:44:17;;;;;;;26.73;13.85;;;;;;;6.11;100.00;102635.00;10222631;28;20129;-64
2022/03/16 01:49:13;;;;;;;34.08;17.00;;;;;;;6.10;100.00;102634.16;10200137;28;20084;-63
2022/03/16 01:54:12;;;;;;;29.00;15.75;;;;;;;6.17;100.00;102641.34;10201974;28;20080;-64
2022/03/16 01:59:10;;;;;;;34.75;16.60;;;;;;;6.16;100.00;102645.13;10194918;28;20538;-63
2022/03/16 02:04:06;;;;;;;35.90;18.08;;;;;;;6.22;100.00;102641.44;10201520;28;20103;-64
2022/03/16 02:09:03;;;;;;;35.13;17.02;;;;;;;6.19;100.00;102639.22;10206928;28;20124;-64
2022/03/16 02:14:00;;;;;;;34.03;16.60;;;;;;;6.17;100.00;102644.06;10214215;28;20061;-64
2022/03/16 02:18:56;;;;;;;35.92;17.10;;;;;;;6.17;100.00;102644.06;10192253;28;20057;-64
2022/03/16 02:23:53;;;;;;;35.35;18.25;;;;;;;6.16;100.00;102653.28;10203734;28;20066;-64
2022/03/16 02:28:49;;;;;;;29.40;16.73;;;;;;;6.14;100.00;102647.25;10199693;28;20042;-64
2022/03/16 02:33:46;;;;;;;36.38;17.15;;;;;;;6.17;100.00;102655.72;10198887;28;20574;-63
2022/03/16 02:38:42;;;;;;;36.35;18.80;;;;;;;6.15;100.00;102657.03;10211521;28;20136;-64
2022/03/16 02:43:40;;;;;;;37.53;16.98;;;;;;;6.13;100.00;102660.03;10193304;28;20137;-64
2022/03/16 02:48:36;;;;;;;35.58;16.35;;;;;;;6.06;100.00;102649.28;10195591;28;20037;-65
2022/03/16 02:53:33;;;;;;;40.92;17.50;;;;;;;5.96;100.00;102654.50;10202635;28;20088;-64
2022/03/16 02:58:30;;;;;;;31.58;16.98;;;;;;;5.87;100.00;102650.47;10203383;28;20107;-64
2022/03/16 03:03:26;;;;;;;29.33;15.75;;;;;;;5.68;100.00;102653.31;10200986;28;20713;-65
2022/03/16 03:08:23;;;;;;;29.58;16.17;;;;;;;5.51;100.00;102657.00;10202714;28;20455;-64
2022/03/16 03:13:19;;;;;;;30.15;14.68;;;;;;;5.40;100.00;102645.91;10194021;28;20111;-63
2022/03/16 03:18:16;;;;;;;35.08;16.63;;;;;;;5.30;100.00;102653.00;10193957;28;20494;-63
2022/03/16 03:23:12;;;;;;;32.80;15.60;;;;;;;5.17;100.00;102646.72;10187278;28;20049;-64
2022/03/16 03:28:09;;;;;;;30.55;14.63;;;;;;;5.08;100.00;102653.53;10186254;28;20053;-64
2022/03/16 03:33:05;;;;;;;35.15;14.95;;;;;;;5.01;100.00;102652.81;10193458;28;20710;-64
2022/03/16 03:38:02;;;;;;;35.42;14.73;;;;;;;4.91;100.00;102663.41;10187221;28;20041;-64
2022/03/16 03:42:58;;;;;;;33.75;15.70;;;;;;;4.89;100.00;102670.94;10192629;28;20072;-66
2022/03/16 03:47:55;;;;;;;34.42;15.73;;;;;;;4.80;100.00;102668.59;10206252;28;20084;-66
2022/03/16 03:52:51;;;;;;;29.27;14.10;;;;;;;4.75;100.00;102664.88;10212633;28;20797;-65
2022/03/16 03:57:48;;;;;;;29.35;12.98;;;;;;;4.68;100.00;102664.97;10204673;28;20133;-65
2022/03/16 04:02:51;;;;;;;31.63;14.68;;;;;;;4.67;100.00;102673.38;10197377;28;20069;-65
2022/03/16 04:07:48;;;;;;;26.02;12.45;;;;;;;4.58;100.00;102667.44;10192742;28;20120;-65
2022/03/16 04:12:44;;;;;;;29.33;13.68;;;;;;;4.55;100.00;102665.16;10209005;28;20041;-65
2022/03/16 04:17:41;;;;;;;30.30;14.68;;;;;;;4.51;100.00;102674.81;10208139;28;20057;-64
2022/03/16 04:22:38;;;;;;;36.90;15.35;;;;;;;4.46;100.00;102680.09;10201347;28;20065;-65
2022/03/16 04:27:34;;;;;;;27.33;13.75;;;;;;;4.39;100.00;102664.75;10200991;28;20080;-65
2022/03/16 04:32:30;;;;;;;31.30;14.05;;;;;;;4.35;100.00;102674.38;10215123;28;20156;-65
2022/03/16 04:37:27;;;;;;;29.55;12.80;;;;;;;4.27;100.00;102674.72;10196107;28;20527;-63
2022/03/16 04:42:23;;;;;;;26.58;13.45;;;;;;;4.22;100.00;102672.69;10204491;28;20511;-63
2022/03/16 04:47:20;;;;;;;27.98;14.30;;;;;;;4.18;100.00;102670.66;10199365;28;20442;-64
2022/03/16 04:52:16;;;;;;;31.92;15.43;;;;;;;4.17;100.00;102663.56;10215114;28;20128;-65
2022/03/16 04:57:13;;;;;;;29.60;13.63;;;;;;;4.12;100.00;102660.72;10218127;28;20062;-65
2022/03/16 05:02:10;;;;;;;30.20;14.48;;;;;;;4.09;100.00;102662.00;10203216;28;20555;-63
2022/03/16 05:07:06;;;;;;;25.70;12.68;;;;;;;4.06;100.00;102653.50;10192549;28;20108;-65
2022/03/16 05:12:03;;;;;;;25.23;13.07;;;;;;;4.01;100.00;102654.19;10205645;28;20066;-65
2022/03/16 05:17:00;;;;;;;32.47;14.57;;;;;;;3.94;100.00;102670.50;10187734;28;20095;-65
2022/03/16 05:21:57;;;;;;;33.30;16.00;;;;;;;3.87;100.00;102680.56;10172712;28;20133;-65
2022/03/16 05:26:54;;;;;;;38.95;15.25;;;;;;;3.85;100.00;102688.09;10203976;28;20046;-65
2022/03/16 05:31:51;;;;;;;30.77;13.73;;;;;;;3.77;100.00;102688.38;10205676;28;20125;-64
2022/03/16 05:36:48;;;;;;;28.60;14.52;;;;;;;3.81;100.00;102703.13;10210613;28;20056;-62
2022/03/16 05:41:45;;;;;;;31.05;15.05;;;;;;;3.87;100.00;102715.75;10199124;28;20045;-62
2022/03/16 05:46:41;;;;;;;35.90;15.40;;;;;;;3.91;100.00;102713.44;10196942;28;20049;-67
2022/03/16 05:51:38;;;;;;;35.95;14.85;;;;;;;3.92;100.00;102715.94;10187713;28;20045;-63
2022/03/16 05:56:35;;;;;;;33.80;15.02;;;;;;;3.94;100.00;102719.22;10188296;28;20073;-63
2022/03/16 06:01:31;;;;;;;38.55;15.35;;;;;;;3.98;100.00;102731.25;10186559;28;20046;-64
2022/03/16 06:06:29;;;;;;;38.00;16.00;;;;;;;3.96;100.00;102727.94;10182705;28;20526;-64
2022/03/16 06:11:27;;;;;;;35.35;16.08;;;;;;;3.99;100.00;102738.34;10187911;28;20058;-64
2022/03/16 06:16:25;;;;;;;30.63;15.18;;;;;;;4.03;100.00;102737.88;10197075;28;20053;-63
2022/03/16 06:21:22;;;;;;;34.00;15.55;;;;;;;3.93;100.00;102755.47;10177779;28;20752;-63
2022/03/16 06:26:18;;;;;;;32.60;14.93;;;;;;;3.95;100.00;102764.19;10185618;28;20068;-64
2022/03/16 06:31:15;;;;;;;34.40;16.33;;;;;;;4.04;100.00;102767.44;10186504;28;20129;-64
2022/03/16 06:36:11;;;;;;;28.35;13.93;;;;;;;4.15;100.00;102760.44;10185463;28;20041;-64
2022/03/16 06:41:08;;;;;;;45.88;23.92;;;;;;;4.34;100.00;102762.13;10185341;28;20058;-64
2022/03/16 06:46:04;;;;;;;33.25;15.90;;;;;;;4.53;100.00;102760.22;10185815;28;20057;-64
2022/03/16 06:51:06;;;;;;;32.58;16.58;;;;;;;4.77;100.00;102766.59;10184817;28;20515;-64
2022/03/16 06:56:03;;;;;;;47.60;18.52;;;;;;;4.92;100.00;102768.06;10176059;28;20496;-64
2022/03/16 07:01:00;;;;;;;42.00;18.40;;;;;;;5.12;100.00;102775.94;10176995;28;20103;-64
2022/03/16 07:05:56;;;;;;;38.35;19.08;;;;;;;5.25;100.00;102779.28;10175275;28;20492;-64
2022/03/16 07:10:53;;;;;;;41.28;16.70;;;;;;;5.34;100.00;102776.22;10176262;28;20046;-64
2022/03/16 07:15:50;;;;;;;34.38;17.00;;;;;;;5.47;100.00;102782.25;10175929;28;20522;-64
2022/03/16 07:20:49;;;;;;;36.72;17.55;;;;;;;5.60;100.00;102788.56;10180035;28;20052;-64
2022/03/16 07:25:48;;;;;;;38.72;16.20;;;;;;;5.74;100.00;102797.31;10188434;28;20104;-64
2022/03/16 07:30:45;;;;;;;34.72;16.42;;;;;;;5.89;100.00;102800.38;10190211;28;20457;-64
2022/03/16 07:35:41;;;;;;;32.72;16.23;;;;;;;5.99;100.00;102799.84;10190305;28;20038;-64
2022/03/16 07:40:38;;;;;;;31.60;15.77;;;;;;;6.04;100.00;102802.69;10189693;28;20042;-64
2022/03/16 07:45:35;;;;;;;36.63;14.95;;;;;;;6.10;100.00;102813.41;10188334;28;20103;-64
2022/03/16 07:50:33;;;;;;;36.78;16.38;;;;;;;6.22;100.00;102815.28;10189079;28;20046;-64
2022/03/16 07:55:29;;;;;;;32.55;14.43;;;;;;;6.35;100.00;102812.31;10189662;28;20049;-64
2022/03/16 08:00:26;;;;;;;32.60;14.70;;;;;;;6.45;100.00;102817.16;10189379;28;20117;-64
2022/03/16 08:05:25;;;;;;;29.08;14.18;;;;;;;6.59;100.00;102812.28;10188287;28;20080;-64
2022/03/16 08:10:22;;;;;;;32.47;14.27;;;;;;;6.73;100.00;102813.69;10151760;28;20057;-64
2022/03/16 08:15:18;;;;;;;31.05;15.73;;;;;;;6.85;100.00;102813.66;10188231;28;20137;-64
2022/03/16 08:20:15;;;;;;;27.48;14.43;;;;;;;7.00;100.00;102815.84;10183571;28;21128;-64
2022/03/16 08:25:12;;;;;;;30.02;15.27;;;;;;;7.06;100.00;102814.88;10180535;28;20054;-68
2022/03/16 08:30:10;;;;;;;35.25;15.30;;;;;;;7.13;100.00;102821.00;10187196;28;20136;-68
2022/03/16 08:35:08;;;;;;;28.98;15.43;;;;;;;7.25;100.00;102821.78;10187402;28;20057;-68
2022/03/16 08:40:06;;;;;;;28.25;14.07;;;;;;;7.36;100.00;102823.59;10188961;28;20082;-68
2022/03/16 08:45:02;;;;;;;26.92;13.88;;;;;;;7.41;100.00;102830.22;10186845;28;20092;-67
2022/03/16 08:49:59;;;;;;;28.67;14.63;;;;;;;7.45;100.00;102824.03;10183067;28;20056;-67
2022/03/16 08:54:55;;;;;;;28.30;14.93;;;;;;;7.45;100.00;102823.19;10181521;28;20045;-68
2022/03/16 08:59:53;;;;;;;21.20;12.68;;;;;;;7.69;100.00;102819.28;10181070;28;20050;-69
2022/03/16 09:04:50;;;;;;;27.88;14.48;;;;;;;7.94;100.00;102828.94;10186998;28;20085;-68
2022/03/16 09:09:47;;;;;;;26.90;13.50;;;;;;;7.95;100.00;102827.84;10189809;28;20089;-68
2022/03/16 09:14:43;;;;;;;26.23;15.05;;;;;;;8.18;100.00;102835.03;10186915;28;20115;-68
2022/03/16 09:19:40;;;;;;;27.35;15.13;;;;;;;8.29;100.00;102838.72;10193398;28;20096;-68
2022/03/16 09:24:38;;;;;;;29.60;15.93;;;;;;;8.49;100.00;102844.47;10194044;28;20483;-68
2022/03/16 09:29:35;;;;;;;24.65;13.90;;;;;;;8.66;100.00;102849.91;10193670;28;20734;-70
2022/03/16 09:34:33;;;;;;;22.95;12.82;;;;;;;8.90;100.00;102845.00;10195349;28;20046;-70
2022/03/16 09:39:31;;;;;;;27.73;11.85;;;;;;;9.19;100.00;102842.06;10208091;28;20089;-70
2022/03/16 09:44:30;;;;;;;16.10;8.38;;;;;;;9.18;100.00;102856.78;10194183;28;20104;-70
2022/03/16 09:49:28;;;;;;;18.27;9.90;;;;;;;9.44;100.00;102849.69;10193849;28;20056;-70
2022/03/16 09:54:25;;;;;;;22.02;10.63;;;;;;;9.72;100.00;102848.59;10194159;28;20077;-71
2022/03/16 09:59:23;;;;;;;18.30;8.77;;;;;;;9.90;100.00;102853.66;10193498;28;20049;-70
2022/03/16 10:04:30;;;;;;;18.83;8.32;;;;;;;10.18;100.00;102851.69;10193414;28;20755;-70
2022/03/16 10:14:49;;;;;;;17.40;7.28;;;;;;;10.39;100.00;102854.56;10191357;28;20052;-69
2022/03/16 10:19:49;;;;;;;15.50;6.82;;;;;;;10.47;100.00;102863.13;10192893;28;20461;-70
2022/03/16 10:24:45;;;;;;;14.77;6.68;;;;;;;10.61;100.00;102863.47;10192018;28;20116;-69
2022/03/16 10:29:42;;;;;;;17.27;6.97;;;;;;;10.86;100.00;102853.72;10191044;28;20045;-66
2022/03/16 10:34:53;;;;;;;14.75;7.00;;;;;;;10.91;100.00;102856.50;10185219;28;20046;-65
2022/03/16 10:39:51;;;;;;;12.88;5.82;;;;;;;11.38;100.00;102850.03;10184429;28;20112;-69
2022/03/16 10:50:06;;;;;;;14.02;5.63;;;;;;;11.75;100.00;102843.50;10187792;28;20096;-68
2022/03/16 10:55:04;;;;;;;13.55;6.65;;;;;;;11.84;100.00;102841.88;10187374;28;20137;-69
2022/03/16 11:00:03;;;;;;;16.70;7.07;;;;;;;11.75;100.00;102843.50;10187003;28;20049;-69
2022/03/16 11:05:00;;;;;;;11.80;6.13;;;;;;;11.94;100.00;102841.06;10183133;28;20513;-68
2022/03/16 11:09:57;;;;;;;14.00;6.63;;;;;;;12.07;100.00;102845.16;10178918;28;20053;-69
2022/03/16 11:14:54;;;;;;;12.43;6.30;;;;;;;11.96;100.00;102839.69;10181155;28;20073;-70
2022/03/16 11:19:52;;;;;;;11.95;5.70;;;;;;;12.07;100.00;102842.41;10183658;28;20816;-69
2022/03/16 11:24:58;;;;;;;15.23;6.68;;;;;;;11.93;100.00;102840.25;10194686;28;20092;-70
2022/03/16 11:30:14;;;;;;;13.95;6.32;;;;;;;12.00;100.00;102835.31;10181864;28;20744;-70
2022/03/16 11:35:13;;;;;;;12.35;5.57;;;;;;;11.65;100.00;102827.03;10181658;28;20141;-69
2022/03/16 11:40:16;;;;;;;13.80;7.07;;;;;;;11.96;100.00;102834.22;10189484;28;20058;-70
2022/03/16 11:45:38;;;;;;;10.38;5.68;;;;;;;12.11;100.00;102818.81;10188501;28;20046;-69
2022/03/16 11:50:35;;;;;;;13.68;5.75;;;;;;;12.06;100.00;102825.13;10178702;28;20085;-69
2022/03/16 11:55:46;;;;;;;13.93;5.50;;;;;;;12.06;100.00;102824.31;10177926;28;20092;-70
2022/03/16 12:00:44;;;;;;;16.77;6.32;;;;;;;12.11;100.00;102802.38;10176735;28;20474;-69
2022/03/16 12:05:56;;;;;;;12.57;5.13;;;;;;;11.92;100.00;102805.69;10181191;28;20133;-69
2022/03/16 12:12:50;;;;;;;14.07;4.82;;;;;;;11.87;100.00;102792.00;10182945;28;20125;-69
2022/03/16 12:16:17;;;;;;;12.77;4.75;;;;;;;11.81;100.00;102782.09;10182922;28;20077;-70
2022/03/16 12:21:14;;;;;;;10.27;5.50;;;;;;;12.06;100.00;102777.72;10177482;28;20575;-67
2022/03/16 12:26:11;;;;;;;15.27;5.15;;;;;;;12.49;100.00;102780.88;10174306;28;20661;-66
2022/03/16 12:31:12;;;;;;;10.13;4.95;;;;;;;12.82;100.00;102773.88;10174008;28;20625;-69
2022/03/16 12:36:15;;;;;;;12.48;5.30;;;;;;;13.10;97.82;102772.31;10173544;28;20042;-70
2022/03/16 12:46:43;;;;;;;11.02;5.78;;;;;;;13.43;97.51;102756.16;10182784;28;20212;-70
2022/03/16 12:51:50;;;;;;;11.18;4.80;;;;;;;13.42;100.00;102749.84;10195048;28;20419;-69
2022/03/16 12:56:51;;;;;;;11.10;5.05;;;;;;;13.56;100.00;102744.53;10190072;28;20046;-69
2022/03/16 13:01:50;;;;;;;13.68;5.72;;;;;;;13.71;100.00;102742.72;10194598;28;20049;-69
2022/03/16 13:06:48;;;;;;;11.27;6.00;;;;;;;13.85;100.00;102727.19;10195002;28;20077;-71
2022/03/16 13:11:46;;;;;;;11.70;6.50;;;;;;;13.90;100.00;102716.13;10195756;28;20073;-71
2022/03/16 13:16:47;;;;;;;11.35;6.43;;;;;;;13.96;100.00;102692.97;10195255;28;20046;-71
2022/03/16 13:21:44;;;;;;;13.63;6.25;;;;;;;13.52;100.00;102693.16;10195544;28;20056;-73
2022/03/16 13:26:41;;;;;;;13.27;6.45;;;;;;;13.67;100.00;102713.09;10194830;28;20479;-66
2022/03/16 13:31:40;;;;;;;12.43;5.97;;;;;;;13.47;100.00;102725.06;10194299;28;20128;-71
2022/03/16 13:36:42;;;;;;;12.73;6.03;;;;;;;13.15;100.00;102722.84;10193550;28;20044;-71
2022/03/16 13:42:04;;;;;;;12.13;6.75;;;;;;;12.97;100.00;102715.28;10194203;28;20045;-71
2022/03/16 13:46:54;;;;;;;12.43;7.28;;;;;;;12.89;100.00;102718.66;10193488;28;20046;-71
2022/03/16 13:52:08;;;;;;;12.20;6.85;;;;;;;12.71;100.00;102734.66;10175333;28;20108;-71
2022/03/16 13:57:10;;;;;;;14.18;7.72;;;;;;;12.59;100.00;102725.94;10186716;28;20663;-71
2022/03/16 14:02:17;;;;;;;13.55;7.45;;;;;;;12.36;100.00;102739.22;10186753;28;20503;-73
2022/03/16 14:07:19;;;;;;;13.52;8.07;;;;;;;12.40;100.00;102745.78;10183920;28;20049;-70
2022/03/16 14:12:16;;;;;;;14.73;7.15;;;;;;;12.49;100.00;102758.94;10187276;28;20088;-73
2022/03/16 14:17:13;;;;;;;14.80;9.00;;;;;;;12.25;100.00;102747.75;10186610;28;20069;-73
2022/03/16 14:22:13;;;;;;;15.85;8.13;;;;;;;12.42;100.00;102729.06;10189133;28;20056;-71
2022/03/16 14:27:19;;;;;;;14.20;8.15;;;;;;;12.62;100.00;102719.88;10192216;28;20046;-73
2022/03/16 14:32:16;;;;;;;18.48;9.05;;;;;;;12.80;100.00;102711.00;10190888;28;20045;-70
2022/03/16 14:37:12;;;;;;;13.60;8.20;;;;;;;12.98;100.00;102708.69;10206941;28;20491;-70
2022/03/16 14:42:09;;;;;;;17.70;8.30;;;;;;;13.29;100.00;102706.56;10191953;28;20054;-71
2022/03/16 14:47:05;;;;;;;15.43;8.35;;;;;;;13.53;100.00;102695.63;10189863;28;20213;-73
2022/03/16 14:52:03;;;;;;;20.60;10.07;;;;;;;13.64;100.00;102697.16;10192160;28;20073;-70
2022/03/16 14:57:00;;;;;;;16.05;9.32;;;;;;;13.77;100.00;102695.66;10189727;28;20140;-70
2022/03/16 15:01:56;;;;;;;17.35;10.30;;;;;;;13.63;100.00;102698.28;10191337;28;20152;-70
2022/03/16 15:06:53;;;;;;;16.88;9.13;;;;;;;13.35;100.00;102699.09;10189588;28;20042;-72
2022/03/16 15:11:49;;;;;;;17.10;10.43;;;;;;;12.96;100.00;102680.69;10190718;28;20068;-72
2022/03/16 15:16:46;;;;;;;18.30;9.65;;;;;;;13.38;100.00;102676.53;10189752;28;20049;-72
2022/03/16 15:21:43;;;;;;;18.95;11.50;;;;;;;13.23;100.00;102681.03;10189297;28;20178;-73
2022/03/16 15:26:42;;;;;;;19.30;10.27;;;;;;;13.25;100.00;102678.81;10189145;28;20447;-72
2022/03/16 15:31:39;;;;;;;16.58;8.88;;;;;;;13.44;100.00;102662.47;10151705;28;20528;-72
2022/03/16 15:36:36;;;;;;;15.32;9.40;;;;;;;13.40;100.00;102663.34;10177381;28;20476;-72
2022/03/16 15:46:48;;;;;;;18.33;9.57;;;;;;;14.32;98.27;102651.28;10180072;28;20514;-72
2022/03/16 15:51:52;;;;;;;15.15;8.77;;;;;;;14.70;95.15;102648.53;10179826;28;20063;-67
2022/03/16 15:56:50;;;;;;;17.23;9.93;;;;;;;14.60;92.72;102652.28;10182592;28;20111;-67
2022/03/16 16:01:47;;;;;;;16.25;9.40;;;;;;;14.90;91.86;102645.47;10180840;28;20041;-67
2022/03/16 16:06:46;;;;;;;15.15;9.43;;;;;;;14.94;90.50;102641.00;10194711;28;20044;-71
2022/03/16 16:11:44;;;;;;;18.63;10.98;;;;;;;15.13;90.84;102616.16;10188315;28;20676;-70
2022/03/16 16:16:44;;;;;;;17.75;9.25;;;;;;;14.75;93.88;102620.09;10189080;28;20127;-70
2022/03/16 16:21:41;;;;;;;18.42;10.85;;;;;;;14.18;90.72;102622.81;10188051;28;20054;-70
2022/03/16 16:26:39;;;;;;;16.70;9.68;;;;;;;14.29;95.90;102635.34;10188010;28;20593;-70
2022/03/16 16:31:37;;;;;;;18.48;10.50;;;;;;;13.49;96.56;102620.38;10188412;28;20077;-70
2022/03/16 16:36:34;;;;;;;15.95;9.50;;;;;;;13.01;100.00;102625.75;10188474;28;20049;-71
2022/03/16 16:41:30;;;;;;;17.70;10.50;;;;;;;12.63;100.00;102617.25;10203545;28;20074;-70
2022/03/16 16:46:27;;;;;;;18.13;10.82;;;;;;;12.35;100.00;102611.41;10188293;28;20128;-71
2022/03/16 16:51:28;;;;;;;18.23;10.57;;;;;;;12.02;100.00;102609.38;10188493;28;20538;-72
2022/03/16 16:56:28;;;;;;;16.40;10.50;;;;;;;11.75;100.00;102613.31;10188310;28;20141;-72
2022/03/16 17:01:25;;;;;;;18.35;10.60;;;;;;;11.46;100.00;102616.66;10187751;28;20133;-72
2022/03/16 17:06:22;;;;;;;20.27;10.63;;;;;;;11.40;100.00;102617.78;10187058;28;20593;-72
2022/03/16 17:11:18;;;;;;;22.35;10.73;;;;;;;11.27;100.00;102612.88;10188144;28;20057;-72
2022/03/16 17:16:35;;;;;;;19.85;10.98;;;;;;;11.13;100.00;102607.97;10182664;28;20044;-72
2022/03/16 17:21:34;;;;;;;20.30;11.38;;;;;;;10.87;100.00;102604.41;10180440;28;20133;-73
2022/03/16 17:26:34;;;;;;;20.70;11.80;;;;;;;10.79;100.00;102609.59;10182207;28;20903;-73
2022/03/16 17:31:31;;;;;;;18.60;10.60;;;;;;;10.52;100.00;102607.94;10186619;28;20092;-72
2022/03/16 17:36:28;;;;;;;21.17;11.65;;;;;;;10.40;100.00;102599.19;10185789;28;20454;-72
2022/03/16 17:46:39;;;;;;;21.13;12.20;;;;;;;10.13;100.00;102602.09;10185993;28;20045;-72
2022/03/16 17:51:37;;;;;;;19.45;11.48;;;;;;;10.05;100.00;102584.31;10186142;28;20077;-67
2022/03/16 17:56:45;;;;;;;20.92;11.80;;;;;;;9.97;100.00;102584.81;10197062;28;20261;-72
2022/03/16 18:01:42;;;;;;;17.85;10.40;;;;;;;9.93;100.00;102589.16;10183862;28;20701;-72
2022/03/16 18:06:39;;;;;;;24.35;11.70;;;;;;;9.71;100.00;102598.38;10180451;28;20053;-72
2022/03/16 18:16:51;;;;;;;20.48;10.30;;;;;;;9.55;100.00;102588.47;10188674;28;20042;-72
2022/03/16 18:27:04;;;;;;;19.35;10.50;;;;;;;9.38;100.00;102578.53;10188039;28;20211;-72
2022/03/16 18:32:00;;;;;;;20.48;10.77;;;;;;;9.13;100.00;102581.09;10187824;28;20054;-72
2022/03/16 18:36:57;;;;;;;15.68;9.70;;;;;;;9.11;100.00;102580.53;10187652;28;20046;-72
2022/03/16 18:41:53;;;;;;;17.63;9.77;;;;;;;8.82;100.00;102569.97;10188510;28;20049;-72
2022/03/16 18:46:50;;;;;;;21.85;10.82;;;;;;;8.79;100.00;102586.84;10186989;28;20125;-72
2022/03/16 18:57:07;;;;;;;18.40;9.57;;;;;;;8.62;100.00;102582.34;10184165;28;20080;-72
2022/03/16 19:02:04;;;;;;;18.15;10.10;;;;;;;8.53;100.00;102585.81;10182059;28;20065;-72
2022/03/16 19:07:01;;;;;;;17.52;8.90;;;;;;;8.69;100.00;102576.69;10184979;28;20046;-72
2022/03/16 19:17:14;;;;;;;13.52;7.82;;;;;;;8.50;100.00;102600.78;10184499;28;20132;-72
2022/03/16 19:22:12;;;;;;;14.68;8.80;;;;;;;8.48;100.00;102607.56;10187957;28;20049;-72
2022/03/16 19:27:09;;;;;;;19.50;9.15;;;;;;;8.16;100.00;102633.63;10184826;28;20562;-72
2022/03/16 19:32:07;;;;;;;16.33;8.48;;;;;;;8.33;100.00;102639.00;10186636;28;20057;-72
2022/03/16 19:37:04;;;;;;;12.93;8.10;;;;;;;8.35;100.00;102619.66;10185715;28;20061;-72
2022/03/16 19:42:09;;;;;;;16.30;9.20;;;;;;;8.03;100.00;102579.53;10186449;28;20053;-72
2022/03/16 19:47:06;;;;;;;15.60;8.07;;;;;;;8.22;100.00;102583.56;10183855;28;20101;-72
2022/03/16 19:52:03;;;;;;;16.45;7.55;;;;;;;8.16;100.00;102590.03;10185906;28;20635;-72
2022/03/16 19:57:00;;;;;;;12.13;8.23;;;;;;;8.17;100.00;102605.31;10184290;28;20100;-72
2022/03/16 20:01:57;;;;;;;18.88;8.20;;;;;;;8.22;100.00;102604.53;10185672;28;20130;-71
2022/03/16 20:06:54;;;;;;;17.30;8.65;;;;;;;8.05;100.00;102599.16;10182196;28;20100;-71
2022/03/16 20:11:51;;;;;;;13.23;8.15;;;;;;;8.04;100.00;102592.06;10185388;28;20084;-71
2022/03/16 20:16:49;;;;;;;18.45;8.80;;;;;;;8.00;100.00;102596.38;10183333;28;20583;-71
2022/03/16 20:21:47;;;;;;;13.68;8.30;;;;;;;7.98;100.00;102582.19;10185280;28;20053;-71
2022/03/16 20:26:45;;;;;;;16.42;8.30;;;;;;;7.83;100.00;102573.84;10183357;28;20085;-71
2022/03/16 20:31:42;;;;;;;13.43;8.00;;;;;;;7.95;100.00;102574.53;10184339;28;20070;-71
2022/03/16 20:36:39;;;;;;;13.98;8.43;;;;;;;7.69;100.00;102563.31;10183788;28;20061;-71
2022/03/16 20:41:38;;;;;;;16.90;7.80;;;;;;;7.89;100.00;102580.97;10184502;28;20107;-70
2022/03/16 20:46:34;;;;;;;15.65;8.40;;;;;;;7.68;100.00;102583.47;10183954;28;20058;-70
2022/03/16 20:51:33;;;;;;;12.35;7.90;;;;;;;7.82;100.00;102577.63;10181203;28;20041;-70
2022/03/16 20:56:29;;;;;;;14.07;7.80;;;;;;;7.75;100.00;102578.66;10180820;28;20082;-72
2022/03/16 21:01:26;;;;;;;15.50;7.68;;;;;;;7.64;100.00;102582.31;10189409;28;20069;-72
2022/03/16 21:06:23;;;;;;;12.77;7.65;;;;;;;7.66;100.00;102566.56;10187380;28;20049;-72
2022/03/16 21:11:26;;;;;;;17.27;8.63;;;;;;;7.66;100.00;102569.28;10178474;28;20128;-67
2022/03/16 21:16:23;;;;;;;17.35;7.20;;;;;;;7.57;100.00;102573.53;10179888;28;20636;-64
2022/03/16 21:21:20;;;;;;;15.02;7.93;;;;;;;7.59;100.00;102568.66;10191585;28;20050;-70
2022/03/16 21:26:19;;;;;;;17.88;8.40;;;;;;;7.48;100.00;102594.09;10190290;28;20108;-71
2022/03/16 21:31:17;;;;;;;13.98;7.85;;;;;;;7.53;100.00;102580.53;10187033;28;20919;-71
2022/03/16 21:36:13;;;;;;;13.23;7.93;;;;;;;7.26;100.00;102574.97;10183797;28;20045;-71
2022/03/16 21:46:25;;;;;;;13.13;7.70;;;;;;;7.28;100.00;102570.94;10187159;28;20140;-68
2022/03/16 21:56:19;;;;;;;16.27;8.38;;;;;;;7.18;100.00;102589.84;10185196;28;20042;-68
2022/03/16 22:01:17;;;;;;;13.98;8.02;;;;;;;7.18;100.00;102584.41;10201662;28;20057;-69
2022/03/16 22:06:14;;;;;;;16.55;9.15;;;;;;;7.24;100.00;102575.25;10194821;28;20104;-69
2022/03/16 22:11:10;;;;;;;16.98;9.25;;;;;;;7.21;100.00;102588.50;10206719;28;20476;-69
2022/03/16 22:16:07;;;;;;;18.20;9.65;;;;;;;7.11;100.00;102565.53;10193316;28;20069;-68
2022/03/16 22:21:22;;;;;;;15.77;9.15;;;;;;;7.10;100.00;102579.38;10198267;28;20530;-68
2022/03/16 22:26:20;;;;;;;17.17;10.07;;;;;;;7.05;100.00;102579.28;10199534;28;20121;-68
2022/03/16 22:31:17;;;;;;;17.88;9.98;;;;;;;7.08;100.00;102573.38;10198321;28;20687;-69
2022/03/16 22:36:19;;;;;;;20.83;10.35;;;;;;;7.09;100.00;102575.81;10204718;28;20044;-68
2022/03/16 22:41:19;;;;;;;19.00;11.87;;;;;;;6.95;100.00;102574.53;10198005;28;20077;-68
2022/03/16 22:46:16;;;;;;;20.63;11.10;;;;;;;6.91;100.00;102565.22;10193720;28;20046;-68
2022/03/16 22:51:13;;;;;;;17.88;10.57;;;;;;;6.87;100.00;102570.34;10204083;28;20060;-68
2022/03/16 22:56:10;;;;;;;20.85;11.27;;;;;;;6.85;100.00;102567.03;10204360;28;20073;-68
2022/03/16 23:01:06;;;;;;;21.23;11.82;;;;;;;6.84;100.00;102565.38;10217690;28;20045;-68
2022/03/16 23:06:05;;;;;;;20.85;11.15;;;;;;;6.90;100.00;102556.22;10194279;28;20132;-69
2022/03/16 23:11:02;;;;;;;19.67;11.45;;;;;;;6.90;100.00;102561.66;10200216;28;20050;-69
2022/03/16 23:15:59;;;;;;;23.50;13.00;;;;;;;6.80;100.00;102539.78;10201768;28;20128;-68